Time;durP1;ratioP1;P1;durP2;ratioP2;P2;SDS_P1;SDS_P2;PMS_P1;PMS_P2;Temp;Humidity;BMP_temperature;BMP_pressure;BME280_temperature;BME280_humidity;BME280_pressure;Samples;Min_cycle;Max_cycle;Signal;HPM_P1;HPM_P2
2021/10/15 00:00:39;;;;;;;8.55;4.85;;;10.50;72.90;;;;;;5037958;28;20056;-79
2021/10/15 00:03:05;;;;;;;8.23;5.20;;;10.50;73.10;;;;;;5050602;28;20021;-80
2021/10/15 00:05:31;;;;;;;7.57;4.95;;;10.50;73.20;;;;;;5051128;28;20088;-79
2021/10/15 00:07:57;;;;;;;11.18;5.68;;;10.50;73.30;;;;;;5051053;28;20084;-79
2021/10/15 00:10:23;;;;;;;8.75;5.25;;;10.60;73.20;;;;;;5035895;28;20057;-79
2021/10/15 00:12:49;;;;;;;10.93;5.38;;;10.60;73.20;;;;;;5035727;28;20075;-79
2021/10/15 00:15:16;;;;;;;7.22;4.80;;;10.50;73.30;;;;;;5034606;28;20036;-79
2021/10/15 00:17:41;;;;;;;7.72;5.50;;;10.50;73.20;;;;;;5035810;28;20029;-79
2021/10/15 00:20:08;;;;;;;8.00;5.30;;;10.60;73.30;;;;;;5034475;28;20029;-79
2021/10/15 00:22:33;;;;;;;6.57;3.97;;;10.60;73.10;;;;;;5034618;28;20113;-79
2021/10/15 00:25:00;;;;;;;8.73;4.30;;;10.60;73.00;;;;;;5050460;28;20056;-79
2021/10/15 00:27:25;;;;;;;6.90;4.18;;;10.50;72.80;;;;;;5035554;28;20521;-79
2021/10/15 00:29:51;;;;;;;5.63;4.32;;;10.50;72.70;;;;;;5039366;28;20124;-79
2021/10/15 00:32:18;;;;;;;6.93;4.10;;;10.40;72.80;;;;;;5053647;28;20075;-79
2021/10/15 00:34:43;;;;;;;5.35;3.58;;;10.40;72.90;;;;;;5052737;28;20105;-79
2021/10/15 00:37:10;;;;;;;8.90;4.43;;;10.40;72.90;;;;;;5035510;28;20033;-79
2021/10/15 00:39:36;;;;;;;4.85;3.65;;;10.30;72.90;;;;;;5035311;28;20389;-79
2021/10/15 00:42:04;;;;;;;9.50;4.38;;;10.30;73.20;;;;;;5034065;28;20021;-79
2021/10/15 00:44:29;;;;;;;6.22;3.92;;;10.30;73.20;;;;;;5034195;28;20049;-79
2021/10/15 00:46:55;;;;;;;7.95;4.43;;;10.20;73.20;;;;;;5033850;28;20073;-79
2021/10/15 00:49:21;;;;;;;10.30;4.32;;;10.20;73.50;;;;;;5035145;28;20052;-79
2021/10/15 00:51:47;;;;;;;9.27;4.25;;;10.10;74.00;;;;;;5035187;28;20108;-79
2021/10/15 00:54:15;;;;;;;6.10;4.38;;;10.10;74.10;;;;;;5033764;28;20453;-79
2021/10/15 00:56:43;;;;;;;9.25;4.32;;;10.10;73.80;;;;;;5035240;28;20071;-79
2021/10/15 00:59:12;;;;;;;6.53;3.90;;;10.10;73.80;;;;;;5035120;28;20560;-79
2021/10/15 01:01:38;;;;;;;8.15;4.53;;;10.10;73.80;;;;;;5035132;28;20021;-79
2021/10/15 01:04:04;;;;;;;5.97;4.35;;;10.00;74.00;;;;;;5035340;28;20036;-79
2021/10/15 01:06:32;;;;;;;8.27;4.43;;;10.00;74.00;;;;;;5039391;28;20031;-79
2021/10/15 01:08:59;;;;;;;6.47;4.20;;;10.00;73.70;;;;;;5039475;28;20068;-79
2021/10/15 01:11:25;;;;;;;7.30;4.35;;;10.00;73.60;;;;;;5038839;28;20036;-79
2021/10/15 01:13:51;;;;;;;8.60;4.43;;;10.00;73.50;;;;;;5054386;28;20044;-79
2021/10/15 01:16:22;;;;;;;9.02;5.15;;;9.90;73.60;;;;;;5054478;28;20021;-79
2021/10/15 01:18:47;;;;;;;12.13;5.13;;;9.90;73.70;;;;;;5039011;28;20037;-79
2021/10/15 01:21:13;;;;;;;9.80;5.25;;;9.90;73.80;;;;;;5037526;28;20442;-79
2021/10/15 01:23:40;;;;;;;8.98;5.15;;;9.90;73.80;;;;;;5039061;28;20025;-79
2021/10/15 01:26:06;;;;;;;8.57;4.93;;;9.90;73.70;;;;;;5058678;28;20029;-79
2021/10/15 01:28:33;;;;;;;9.07;4.68;;;9.80;73.90;;;;;;5057438;28;20041;-79
2021/10/15 01:30:59;;;;;;;10.10;5.75;;;9.80;74.00;;;;;;5045622;28;20109;-79
2021/10/15 01:33:28;;;;;;;10.55;5.55;;;9.80;73.90;;;;;;5037244;28;20041;-79
2021/10/15 01:35:54;;;;;;;8.48;5.47;;;9.80;73.90;;;;;;5038699;28;20029;-79
2021/10/15 01:38:20;;;;;;;9.60;4.57;;;9.80;74.10;;;;;;5038679;28;20412;-79
2021/10/15 01:40:46;;;;;;;8.52;4.57;;;9.70;74.00;;;;;;5036919;28;20030;-79
2021/10/15 01:43:20;;;;;;;6.40;4.07;;;9.70;73.80;;;;;;5038598;28;20022;-79
2021/10/15 01:45:46;;;;;;;8.40;4.80;;;9.70;73.70;;;;;;5038569;28;20059;-79
2021/10/15 01:48:11;;;;;;;8.95;5.20;;;9.70;73.80;;;;;;5041032;28;20103;-79
2021/10/15 01:50:37;;;;;;;11.32;6.40;;;9.70;73.70;;;;;;5057209;28;20025;-79
2021/10/15 01:53:03;;;;;;;13.23;7.35;;;9.70;73.70;;;;;;5056868;28;20112;-79
2021/10/15 01:55:28;;;;;;;10.13;6.78;;;9.70;73.60;;;;;;5051907;28;20025;-79
2021/10/15 01:57:54;;;;;;;11.85;6.43;;;9.70;73.80;;;;;;5038163;28;20091;-79
2021/10/15 02:00:20;;;;;;;11.82;6.80;;;9.70;74.10;;;;;;5036785;28;20507;-79
2021/10/15 02:02:46;;;;;;;11.43;6.68;;;9.70;74.20;;;;;;5036720;28;20480;-79
2021/10/15 02:05:14;;;;;;;11.93;6.05;;;9.80;74.10;;;;;;5038463;28;20084;-79
2021/10/15 02:07:43;;;;;;;8.98;5.97;;;9.70;74.10;;;;;;5038561;28;20380;-79
2021/10/15 02:10:10;;;;;;;11.93;6.32;;;9.70;74.30;;;;;;5036605;28;20494;-79
2021/10/15 02:12:37;;;;;;;13.75;6.93;;;9.70;74.40;;;;;;5037931;28;20100;-79
2021/10/15 02:15:04;;;;;;;13.43;7.85;;;9.70;74.20;;;;;;5037683;28;20030;-79
2021/10/15 02:17:30;;;;;;;14.05;7.97;;;9.80;74.30;;;;;;5037022;28;20034;-79
2021/10/15 02:19:56;;;;;;;13.10;7.85;;;9.80;74.40;;;;;;5037767;28;20025;-79
2021/10/15 02:22:21;;;;;;;11.48;7.85;;;9.80;74.40;;;;;;5038000;28;20108;-79
2021/10/15 02:24:47;;;;;;;13.30;7.93;;;9.80;74.30;;;;;;5053209;28;20116;-79
2021/10/15 02:27:13;;;;;;;17.00;8.65;;;9.80;74.50;;;;;;5076267;28;20031;-79
2021/10/15 02:29:39;;;;;;;12.57;7.85;;;9.70;75.00;;;;;;5077817;28;20032;-79
2021/10/15 02:32:04;;;;;;;12.88;7.90;;;9.60;75.20;;;;;;5046051;28;20040;-79
2021/10/15 02:34:30;;;;;;;15.40;9.10;;;9.60;75.20;;;;;;5036565;28;20487;-79
2021/10/15 02:36:56;;;;;;;12.07;7.95;;;9.70;75.00;;;;;;5037628;28;20105;-79
2021/10/15 02:39:22;;;;;;;14.40;8.85;;;9.70;74.80;;;;;;5037426;28;20033;-79
2021/10/15 02:41:47;;;;;;;12.23;7.95;;;9.70;74.40;;;;;;5050397;28;20033;-79
2021/10/15 02:44:14;;;;;;;12.57;8.25;;;9.70;74.80;;;;;;5037458;28;20021;-79
2021/10/15 02:46:40;;;;;;;13.65;7.93;;;9.70;74.90;;;;;;5037413;28;20075;-79
2021/10/15 02:49:06;;;;;;;13.40;8.98;;;9.70;74.80;;;;;;5035859;28;20045;-79
2021/10/15 02:51:33;;;;;;;13.70;8.35;;;9.70;75.00;;;;;;5037407;28;20136;-79
2021/10/15 02:53:58;;;;;;;13.50;8.20;;;9.70;75.00;;;;;;5037298;28;20022;-79
2021/10/15 02:56:25;;;;;;;13.27;7.40;;;9.70;74.80;;;;;;5036962;28;20067;-78
2021/10/15 02:58:53;;;;;;;10.52;7.68;;;9.70;74.70;;;;;;5052281;28;20112;-79
2021/10/15 03:01:18;;;;;;;15.20;8.93;;;9.80;74.70;;;;;;5036976;28;20105;-79
2021/10/15 03:03:44;;;;;;;14.20;9.07;;;9.70;74.80;;;;;;5054358;28;20060;-79
2021/10/15 03:06:10;;;;;;;15.88;8.70;;;9.60;75.00;;;;;;5055732;28;20028;-79
2021/10/15 03:08:36;;;;;;;14.70;8.60;;;9.60;75.30;;;;;;5050451;28;20056;-79
2021/10/15 03:11:02;;;;;;;14.38;8.48;;;9.50;75.30;;;;;;5035665;28;20029;-79
2021/10/15 03:13:28;;;;;;;17.70;9.55;;;9.50;75.30;;;;;;5036968;28;20040;-79
2021/10/15 03:15:56;;;;;;;14.05;8.75;;;9.50;75.40;;;;;;5036722;28;20037;-79
2021/10/15 03:18:22;;;;;;;13.75;8.77;;;9.50;75.30;;;;;;5035033;28;20060;-79
2021/10/15 03:20:48;;;;;;;14.25;8.15;;;9.50;75.40;;;;;;5036680;28;20033;-79
2021/10/15 03:23:14;;;;;;;12.55;8.32;;;9.60;75.10;;;;;;5036936;28;20017;-79
2021/10/15 03:25:40;;;;;;;14.23;8.38;;;9.60;75.20;;;;;;5067911;28;20028;-78
2021/10/15 03:28:06;;;;;;;12.10;7.88;;;9.50;75.20;;;;;;5062922;28;20025;-79
2021/10/15 03:30:32;;;;;;;12.73;7.78;;;9.50;75.60;;;;;;5036737;28;20026;-79
2021/10/15 03:33:00;;;;;;;14.73;9.55;;;9.50;75.50;;;;;;5036642;28;20510;-79
2021/10/15 03:35:26;;;;;;;13.00;8.05;;;9.60;75.40;;;;;;5053831;28;20036;-79
2021/10/15 03:37:51;;;;;;;14.45;8.32;;;9.60;75.20;;;;;;5056364;28;20025;-79
2021/10/15 03:40:17;;;;;;;12.85;8.82;;;9.70;75.00;;;;;;5048084;28;20029;-79
2021/10/15 03:42:43;;;;;;;15.68;9.10;;;9.60;75.10;;;;;;5034958;28;20124;-79
2021/10/15 03:45:09;;;;;;;12.32;8.02;;;9.60;75.20;;;;;;5036423;28;20029;-79
2021/10/15 03:47:35;;;;;;;13.85;8.70;;;9.70;75.00;;;;;;5036078;28;20082;-78
2021/10/15 03:50:02;;;;;;;14.70;8.85;;;9.70;75.00;;;;;;5034704;28;20068;-79
2021/10/15 03:52:27;;;;;;;16.23;8.73;;;9.70;75.10;;;;;;5034781;28;20059;-79
2021/10/15 03:54:53;;;;;;;11.23;7.63;;;9.60;75.20;;;;;;5034708;28;20459;-79
2021/10/15 03:57:19;;;;;;;11.75;7.65;;;9.60;75.30;;;;;;5036178;28;20026;-79
2021/10/15 03:59:44;;;;;;;12.63;7.25;;;9.60;75.10;;;;;;5034463;28;20381;-79
2021/10/15 04:02:10;;;;;;;13.15;7.22;;;9.60;75.00;;;;;;5035929;28;20017;-79
2021/10/15 04:04:36;;;;;;;9.20;7.35;;;9.50;75.30;;;;;;5036263;28;20056;-79
2021/10/15 04:07:06;;;;;;;11.23;7.72;;;9.50;75.40;;;;;;5035968;28;20476;-79
2021/10/15 04:09:32;;;;;;;11.73;7.35;;;9.50;75.10;;;;;;5034560;28;20029;-79
2021/10/15 04:11:58;;;;;;;12.80;7.60;;;9.50;75.50;;;;;;5035821;28;20025;-79
2021/10/15 04:14:24;;;;;;;13.43;7.75;;;9.40;75.60;;;;;;5035826;28;20038;-79
2021/10/15 04:16:50;;;;;;;13.60;8.55;;;9.50;75.80;;;;;;5035591;28;20468;-79
2021/10/15 04:19:15;;;;;;;10.70;7.70;;;9.40;75.70;;;;;;5033944;28;20029;-78
2021/10/15 04:21:41;;;;;;;16.15;8.52;;;9.40;75.80;;;;;;5034487;28;20022;-81
2021/10/15 04:24:10;;;;;;;13.93;7.88;;;9.40;75.90;;;;;;5035949;28;20100;-85
2021/10/15 04:26:36;;;;;;;12.10;7.30;;;9.40;75.80;;;;;;5034810;28;20044;-84
2021/10/15 04:29:02;;;;;;;10.40;7.47;;;9.40;75.90;;;;;;5034262;28;20033;-85
2021/10/15 04:31:28;;;;;;;12.77;8.05;;;9.40;75.70;;;;;;5035525;28;20036;-84
2021/10/15 04:33:54;;;;;;;12.13;7.47;;;9.40;75.90;;;;;;5035510;28;20037;-85
2021/10/15 04:36:19;;;;;;;10.43;7.53;;;9.40;75.90;;;;;;5035429;28;20121;-84
2021/10/15 04:38:46;;;;;;;10.32;7.07;;;9.40;75.70;;;;;;5035204;28;20065;-84
2021/10/15 04:41:15;;;;;;;11.25;7.60;;;9.30;76.00;;;;;;5035124;28;20487;-84
2021/10/15 04:43:41;;;;;;;12.02;7.75;;;9.40;76.10;;;;;;5033961;28;20021;-84
2021/10/15 14:46:37;;;;;;;6.88;2.80;;;16.90;67.40;;;;;;5068978;28;20407;-76
2021/10/15 14:49:03;;;;;;;5.13;2.40;;;16.80;67.40;;;;;;5051414;28;20021;-76
2021/10/15 14:51:29;;;;;;;4.63;2.38;;;17.00;67.30;;;;;;5050729;28;20083;-76
2021/10/15 14:53:55;;;;;;;5.05;2.65;;;17.10;66.90;;;;;;5051337;28;20092;-77
2021/10/15 14:56:20;;;;;;;4.47;2.60;;;17.30;66.50;;;;;;5050683;28;20044;-77
2021/10/15 14:58:46;;;;;;;4.90;2.83;;;17.50;65.80;;;;;;5051233;28;20047;-77
2021/10/15 15:01:13;;;;;;;5.07;3.05;;;17.80;65.40;;;;;;5048833;28;20017;-77
2021/10/15 15:03:40;;;;;;;5.13;2.95;;;18.00;64.90;;;;;;5051100;28;20041;-77
2021/10/15 15:06:07;;;;;;;6.07;3.72;;;18.00;64.70;;;;;;5049531;28;20032;-76
2021/10/15 15:08:35;;;;;;;7.03;2.95;;;18.00;65.20;;;;;;5050541;28;20502;-77
2021/10/15 15:11:01;;;;;;;6.90;3.47;;;18.00;65.30;;;;;;5050433;28;20014;-77
2021/10/15 15:13:27;;;;;;;8.60;4.40;;;18.10;64.90;;;;;;5050900;28;20026;-77
2021/10/15 15:15:54;;;;;;;6.88;3.92;;;18.20;64.90;;;;;;5050199;28;20022;-77
2021/10/15 15:18:22;;;;;;;8.52;3.83;;;18.20;64.90;;;;;;5050563;28;20100;-77
2021/10/15 15:20:51;;;;;;;5.72;3.60;;;18.30;64.40;;;;;;5050628;28;20013;-77
2021/10/15 15:23:18;;;;;;;10.00;4.38;;;18.30;64.40;;;;;;5049273;28;20119;-78
2021/10/15 15:25:44;;;;;;;6.32;4.15;;;18.30;64.80;;;;;;5046332;28;20067;-78
2021/10/15 15:28:10;;;;;;;9.02;4.18;;;18.20;65.30;;;;;;5050692;28;20041;-78
2021/10/15 15:30:35;;;;;;;8.35;4.03;;;18.00;66.20;;;;;;5050668;28;20029;-77
2021/10/15 15:33:01;;;;;;;8.07;4.03;;;17.80;66.80;;;;;;5049918;28;20029;-77
2021/10/15 15:35:27;;;;;;;9.07;4.20;;;17.70;67.10;;;;;;5048675;28;20022;-77
2021/10/15 15:37:52;;;;;;;9.20;4.38;;;17.50;67.60;;;;;;5050013;28;20022;-77
2021/10/15 15:40:18;;;;;;;7.40;3.85;;;17.40;67.40;;;;;;5049764;28;20052;-78
2021/10/15 15:42:45;;;;;;;6.38;4.18;;;17.30;67.90;;;;;;5047483;28;20072;-77
2021/10/15 15:45:18;;;;;;;11.50;7.00;;;17.30;68.10;;;;;;5050272;28;20037;-77
2021/10/15 15:47:45;;;;;;;11.55;7.50;;;17.30;68.10;;;;;;5048685;28;20108;-77
2021/10/15 15:50:17;;;;;;;10.50;7.50;;;17.30;68.40;;;;;;5049386;28;20021;-76
2021/10/15 15:52:46;;;;;;;9.40;4.70;;;17.30;68.40;;;;;;5043342;28;20033;-77
2021/10/15 15:55:16;;;;;;;8.48;5.25;;;17.20;68.60;;;;;;5031394;28;20041;-76
2021/10/15 15:57:47;;;;;;;6.03;4.82;;;17.20;68.40;;;;;;5019859;28;20425;-78
2021/10/15 16:00:13;;;;;;;6.97;4.55;;;17.30;68.20;;;;;;5018216;28;20405;-74
2021/10/15 16:02:41;;;;;;;9.43;5.25;;;17.50;68.00;;;;;;5030854;28;20101;-76
2021/10/15 16:05:09;;;;;;;7.25;5.40;;;17.60;67.40;;;;;;5039204;28;20026;-76
2021/10/15 16:07:35;;;;;;;7.22;3.65;;;17.60;67.10;;;;;;5032318;28;20087;-77
2021/10/15 16:10:01;;;;;;;6.05;4.30;;;17.70;66.40;;;;;;5033039;28;20022;-78
2021/10/15 16:12:27;;;;;;;9.63;6.47;;;17.60;66.80;;;;;;5034435;28;20029;-77
2021/10/15 16:14:52;;;;;;;17.30;8.98;;;17.50;66.60;;;;;;5037076;28;20492;-76
2021/10/15 16:17:18;;;;;;;16.75;8.38;;;17.50;66.90;;;;;;5035575;28;20040;-77
2021/10/15 16:19:44;;;;;;;13.85;8.23;;;17.50;67.30;;;;;;5032032;28;20041;-76
2021/10/15 16:22:09;;;;;;;10.88;7.60;;;17.40;67.60;;;;;;5017775;28;20830;-76
2021/10/15 16:24:35;;;;;;;15.80;8.07;;;17.30;68.30;;;;;;5042747;28;20152;-76
2021/10/15 16:27:01;;;;;;;16.85;9.80;;;17.20;68.80;;;;;;5057372;28;20036;-76
2021/10/15 16:29:26;;;;;;;17.85;11.15;;;17.20;69.10;;;;;;5039901;28;20093;-76
2021/10/15 16:31:53;;;;;;;10.90;7.03;;;17.10;69.60;;;;;;5017317;28;20427;-76
2021/10/15 16:34:19;;;;;;;9.93;7.65;;;17.00;69.90;;;;;;5018302;28;20048;-76
2021/10/15 16:36:46;;;;;;;12.15;7.47;;;17.00;70.00;;;;;;5037357;28;20476;-77
2021/10/15 16:39:13;;;;;;;10.98;7.97;;;17.00;70.20;;;;;;5035346;28;20032;-75
2021/10/15 16:41:38;;;;;;;10.90;8.55;;;17.00;70.10;;;;;;5037059;28;20108;-75
2021/10/15 16:44:05;;;;;;;11.13;8.52;;;17.00;70.30;;;;;;5027423;28;20050;-77
2021/10/15 16:46:31;;;;;;;15.70;10.45;;;16.90;70.60;;;;;;5021017;28;20102;-75
2021/10/15 16:48:56;;;;;;;16.20;10.48;;;16.80;70.80;;;;;;5030888;28;20025;-74
2021/10/15 16:51:22;;;;;;;11.45;9.15;;;16.80;70.90;;;;;;5037115;28;20029;-75
2021/10/15 16:53:48;;;;;;;13.25;9.63;;;16.80;71.40;;;;;;5026925;28;20026;-77
2021/10/15 16:56:14;;;;;;;11.75;9.45;;;16.60;71.80;;;;;;5027605;28;20026;-74
2021/10/15 16:58:39;;;;;;;14.18;9.20;;;16.50;72.30;;;;;;5031384;28;20061;-74
2021/10/15 17:01:05;;;;;;;14.95;11.07;;;16.40;72.70;;;;;;5033734;28;20035;-74
2021/10/15 17:03:31;;;;;;;12.52;10.52;;;16.40;73.00;;;;;;5033739;28;20025;-75
2021/10/15 17:05:57;;;;;;;15.80;10.85;;;16.30;73.30;;;;;;5033599;28;20483;-75
2021/10/15 17:08:23;;;;;;;16.23;12.27;;;16.20;73.80;;;;;;5022809;28;20045;-75
2021/10/15 17:10:48;;;;;;;13.35;10.32;;;16.20;73.90;;;;;;5026030;28;20152;-73
2021/10/15 17:13:14;;;;;;;12.43;9.52;;;16.10;74.50;;;;;;5029234;28;20074;-74
2021/10/15 17:15:40;;;;;;;17.20;10.15;;;16.00;74.90;;;;;;5034635;28;20119;-77
2021/10/15 17:18:06;;;;;;;15.82;10.82;;;15.90;75.10;;;;;;5066231;28;20087;-74
2021/10/15 17:20:32;;;;;;;12.85;8.95;;;15.80;75.30;;;;;;5032960;28;20053;-75
2021/10/15 17:22:58;;;;;;;15.57;9.00;;;15.80;75.60;;;;;;5035851;28;20022;-74
2021/10/15 17:25:24;;;;;;;17.23;9.90;;;15.70;76.00;;;;;;5033934;28;20029;-74
2021/10/15 17:27:50;;;;;;;17.95;9.18;;;15.70;76.30;;;;;;5031215;28;20112;-74
2021/10/15 17:30:21;;;;;;;16.70;9.25;;;15.60;76.30;;;;;;5035960;28;20112;-75
2021/10/15 17:32:48;;;;;;;24.92;10.65;;;15.60;76.50;;;;;;5032706;28;20422;-75
2021/10/15 17:35:14;;;;;;;26.50;10.98;;;15.50;76.50;;;;;;5032500;28;20025;-74
2021/10/15 17:37:40;;;;;;;27.83;12.27;;;15.50;76.70;;;;;;5036707;28;20412;-85
2021/10/15 17:40:06;;;;;;;19.17;11.30;;;15.40;76.70;;;;;;5029636;28;20112;-86
2021/10/15 17:42:32;;;;;;;21.40;12.38;;;15.40;77.00;;;;;;5033886;28;20025;-84
2021/10/15 17:44:58;;;;;;;12.10;9.35;;;15.30;77.20;;;;;;5033947;28;20052;-84
2021/10/15 17:47:24;;;;;;;13.43;8.77;;;15.30;77.20;;;;;;5034844;28;20018;-89
2021/10/15 17:49:49;;;;;;;12.05;8.00;;;15.30;77.50;;;;;;5032385;28;20052;-89
2021/10/15 17:52:22;;;;;;;15.93;8.77;;;15.20;77.80;;;;;;5030754;28;20021;-84
2021/10/15 17:54:54;;;;;;;23.35;13.45;;;15.10;78.00;;;;;;5031372;28;20533;-88
2021/10/15 17:57:21;;;;;;;42.45;22.33;;;15.10;78.00;;;;;;5030028;28;20028;-87
2021/10/15 17:59:48;;;;;;;30.65;17.95;;;15.20;77.80;;;;;;5033226;28;20033;-85
2021/10/15 18:02:14;;;;;;;22.02;13.02;;;15.20;77.70;;;;;;5031189;28;20026;-89
2021/10/15 18:04:40;;;;;;;24.75;14.48;;;15.20;77.60;;;;;;5034106;28;20503;-83
2021/10/15 18:07:06;;;;;;;21.92;13.98;;;15.20;77.70;;;;;;5033908;28;20060;-85
2021/10/15 18:09:32;;;;;;;16.35;11.93;;;15.20;77.70;;;;;;5033309;28;20030;-81
2021/10/15 18:12:02;;;;;;;17.08;10.88;;;15.20;77.80;;;;;;5036967;28;20017;-83
2021/10/15 18:14:28;;;;;;;13.77;10.30;;;15.20;77.60;;;;;;5066221;28;20059;-91
2021/10/15 18:16:54;;;;;;;14.52;10.05;;;15.10;77.80;;;;;;5032809;28;20496;-81
2021/10/15 18:19:21;;;;;;;13.05;9.25;;;15.10;77.60;;;;;;5033232;28;20022;-85
2021/10/15 18:21:51;;;;;;;18.98;10.05;;;15.20;77.50;;;;;;5037804;28;20021;-86
2021/10/15 18:24:17;;;;;;;15.87;10.50;;;15.10;77.90;;;;;;5028194;28;20630;-87
2021/10/15 18:26:43;;;;;;;19.27;10.30;;;15.00;78.00;;;;;;5027855;28;20991;-91
2021/10/15 18:29:10;;;;;;;17.55;10.07;;;14.90;78.10;;;;;;5035566;28;20051;-89
2021/10/15 18:31:39;;;;;;;17.13;9.73;;;14.90;78.10;;;;;;5073111;28;20025;-88
2021/10/15 18:34:08;;;;;;;16.45;9.55;;;14.80;78.50;;;;;;5033578;28;20025;-90
2021/10/15 18:36:36;;;;;;;13.32;9.43;;;14.80;78.80;;;;;;5035268;28;20030;-89
2021/10/15 18:39:04;;;;;;;16.20;9.75;;;14.80;78.60;;;;;;5036223;28;20065;-90
2021/10/15 18:41:35;;;;;;;20.67;11.20;;;14.80;78.50;;;;;;5035228;28;20378;-87
2021/10/15 18:44:01;;;;;;;14.70;9.20;;;14.80;78.60;;;;;;5066202;28;20056;-91
2021/10/15 18:46:27;;;;;;;15.65;9.98;;;14.70;78.80;;;;;;5037962;28;20045;-92
2021/10/15 18:48:53;;;;;;;15.90;10.60;;;14.70;78.90;;;;;;5034565;28;20025;-84
2021/10/15 18:51:38;;;;;;;17.35;10.50;;;14.60;79.00;;;;;;5032815;28;20148;-81
2021/10/15 18:54:08;;;;;;;20.88;10.63;;;14.60;79.10;;;;;;5028817;28;20029;-83
2021/10/15 18:56:34;;;;;;;18.77;11.10;;;14.60;79.20;;;;;;5033877;28;20032;-85
2021/10/15 18:58:59;;;;;;;17.52;10.60;;;14.50;79.30;;;;;;5032544;28;20069;-89
2021/10/15 19:01:25;;;;;;;14.68;10.82;;;14.60;79.20;;;;;;5027322;28;20037;-83
2021/10/15 19:03:51;;;;;;;21.40;12.52;;;14.50;79.30;;;;;;5031837;28;20863;-85
2021/10/15 19:06:17;;;;;;;19.13;11.43;;;14.50;79.30;;;;;;5033459;28;20039;-87
2021/10/15 19:08:43;;;;;;;21.77;11.75;;;14.50;79.40;;;;;;5025587;28;20116;-87
2021/10/15 19:11:08;;;;;;;24.10;12.23;;;14.40;79.50;;;;;;5036219;28;20060;-83
2021/10/15 19:13:34;;;;;;;23.98;11.88;;;14.40;79.80;;;;;;5030589;28;20033;-85
2021/10/15 19:16:00;;;;;;;22.58;12.13;;;14.30;79.90;;;;;;5025424;28;20034;-84
2021/10/15 19:18:26;;;;;;;23.55;12.55;;;14.30;79.90;;;;;;5032027;28;20045;-77
2021/10/15 19:20:53;;;;;;;22.63;13.32;;;14.30;80.20;;;;;;5032342;28;20121;-81
2021/10/15 19:23:21;;;;;;;25.50;12.35;;;14.30;80.10;;;;;;5033404;28;20036;-78
2021/10/15 19:25:47;;;;;;;16.90;11.05;;;14.30;79.90;;;;;;5031209;28;20189;-79
2021/10/15 19:28:15;;;;;;;16.75;10.68;;;14.30;80.00;;;;;;5023422;28;20034;-77
2021/10/15 19:30:45;;;;;;;18.45;10.85;;;14.30;80.00;;;;;;5023688;28;20056;-82
2021/10/15 19:33:12;;;;;;;18.27;11.37;;;14.30;80.00;;;;;;5028198;28;20022;-81
2021/10/15 19:35:38;;;;;;;18.95;12.43;;;14.30;80.20;;;;;;5026598;28;20256;-82
2021/10/15 19:38:03;;;;;;;19.23;10.98;;;14.20;80.30;;;;;;5028175;28;20771;-80
2021/10/15 19:40:30;;;;;;;21.73;11.25;;;14.10;80.50;;;;;;5026613;28;20045;-83
2021/10/15 19:42:58;;;;;;;22.92;11.75;;;14.10;80.60;;;;;;5021658;28;20030;-83
2021/10/15 19:45:24;;;;;;;20.90;12.27;;;14.10;80.60;;;;;;5018811;28;20057;-82
2021/10/15 19:47:49;;;;;;;22.83;12.93;;;14.10;80.70;;;;;;5028556;28;20052;-85
2021/10/15 19:50:18;;;;;;;20.77;11.48;;;14.10;80.70;;;;;;5028417;28;20034;-81
2021/10/15 19:52:44;;;;;;;19.95;12.90;;;14.00;80.90;;;;;;5021006;28;20025;-84
2021/10/15 19:55:09;;;;;;;23.48;13.20;;;14.10;80.90;;;;;;5032070;28;20030;-83
2021/10/15 19:57:46;;;;;;;22.17;11.95;;;14.00;81.20;;;;;;5027361;28;20052;-86
2021/10/15 20:00:44;;;;;;;21.90;12.27;;;14.00;81.10;;;;;;5024007;28;20022;-86
2021/10/15 20:03:10;;;;;;;19.80;12.60;;;13.90;81.20;;;;;;5024494;28;20399;-82
2021/10/15 20:05:46;;;;;;;18.75;12.68;;;13.90;81.20;;;;;;5025556;28;20029;-81
2021/10/15 20:08:11;;;;;;;20.80;12.07;;;13.80;81.40;;;;;;5029725;28;20022;-83
2021/10/15 20:10:37;;;;;;;25.70;12.07;;;13.80;81.70;;;;;;5045229;28;20395;-78
2021/10/15 20:13:03;;;;;;;22.42;12.65;;;13.80;81.90;;;;;;5025729;28;20083;-77
2021/10/15 20:15:28;;;;;;;18.58;11.80;;;13.80;82.10;;;;;;5024387;28;20040;-78
2021/10/15 20:17:54;;;;;;;26.20;12.20;;;13.80;81.90;;;;;;5036477;28;20048;-83
2021/10/15 20:20:20;;;;;;;23.38;12.80;;;13.80;81.70;;;;;;5032044;28;20021;-79
2021/10/15 20:22:51;;;;;;;23.25;13.05;;;13.80;81.60;;;;;;5030232;28;20495;-82
2021/10/15 20:25:16;;;;;;;21.95;12.18;;;13.80;81.70;;;;;;5031873;28;20036;-80
2021/10/15 20:27:45;;;;;;;22.65;13.43;;;13.80;81.60;;;;;;5030256;28;20025;-80
2021/10/15 20:30:12;;;;;;;21.17;12.73;;;13.80;82.00;;;;;;5035378;28;20105;-78
2021/10/15 20:32:40;;;;;;;20.73;12.20;;;13.70;82.20;;;;;;5032387;28;20541;-79
2021/10/15 20:35:07;;;;;;;22.63;12.63;;;13.70;82.30;;;;;;5033229;28;20021;-79
2021/10/15 20:37:34;;;;;;;22.35;11.38;;;13.70;82.20;;;;;;5034359;28;20033;-80
2021/10/15 20:40:07;;;;;;;21.50;12.10;;;13.70;82.00;;;;;;5034264;28;20014;-80
2021/10/15 20:42:33;;;;;;;23.58;12.85;;;13.70;82.00;;;;;;5032493;28;20427;-79
2021/10/15 20:44:59;;;;;;;22.27;12.90;;;13.70;81.80;;;;;;5034807;28;20045;-83
2021/10/15 20:47:25;;;;;;;22.65;12.88;;;13.80;81.60;;;;;;5034103;28;20030;-85
2021/10/15 20:49:51;;;;;;;21.98;11.63;;;13.80;81.60;;;;;;5032820;28;20068;-82
2021/10/15 20:52:16;;;;;;;24.75;13.43;;;13.80;81.80;;;;;;5032880;28;20026;-80
2021/10/15 20:54:42;;;;;;;24.20;12.05;;;13.70;81.90;;;;;;5033571;28;20091;-81
2021/10/15 20:57:08;;;;;;;21.08;11.98;;;13.70;82.10;;;;;;5032314;28;20037;-81
2021/10/15 20:59:36;;;;;;;25.58;11.95;;;13.80;82.00;;;;;;5033704;28;20108;-82
2021/10/15 21:02:03;;;;;;;20.23;12.63;;;13.80;81.80;;;;;;5035036;28;20021;-82
2021/10/15 21:04:29;;;;;;;22.98;12.55;;;13.70;81.70;;;;;;5018948;28;20037;-82
2021/10/15 21:06:55;;;;;;;21.52;12.63;;;13.70;81.80;;;;;;5029074;28;20030;-81
2021/10/15 21:09:20;;;;;;;23.73;13.23;;;13.70;81.90;;;;;;5025453;28;20026;-82
2021/10/15 21:11:46;;;;;;;23.02;13.18;;;13.70;81.90;;;;;;5025713;28;20077;-82
2021/10/15 21:14:12;;;;;;;24.63;13.63;;;13.70;81.80;;;;;;5027142;28;20021;-82
2021/10/15 21:16:38;;;;;;;26.30;12.85;;;13.70;81.90;;;;;;5026612;28;20040;-82
2021/10/15 21:19:03;;;;;;;27.00;13.82;;;13.70;82.00;;;;;;5024641;28;20029;-82
2021/10/15 21:21:29;;;;;;;23.95;13.45;;;13.70;81.90;;;;;;5027213;28;20029;-81
2021/10/15 21:23:55;;;;;;;24.17;12.68;;;13.70;81.90;;;;;;5028259;28;20025;-82
2021/10/15 21:26:20;;;;;;;26.55;13.75;;;13.60;82.10;;;;;;5028203;28;20032;-82
2021/10/15 21:28:46;;;;;;;20.77;12.55;;;13.60;82.00;;;;;;5017374;28;20026;-82
2021/10/15 21:31:12;;;;;;;29.77;13.93;;;13.70;82.00;;;;;;5024157;28;20025;-82
2021/10/15 21:33:38;;;;;;;25.08;12.45;;;13.60;81.90;;;;;;5034274;28;20026;-81
2021/10/15 21:36:03;;;;;;;23.13;13.68;;;13.50;81.90;;;;;;5035790;28;20037;-81
2021/10/15 21:38:29;;;;;;;23.08;12.82;;;13.50;81.90;;;;;;5030873;28;20032;-82
2021/10/15 21:40:55;;;;;;;25.60;13.38;;;13.50;81.90;;;;;;5035823;28;20063;-82
2021/10/15 21:43:21;;;;;;;24.40;13.95;;;13.50;82.00;;;;;;5029617;28;20097;-81
2021/10/15 21:45:46;;;;;;;23.08;13.25;;;13.50;81.90;;;;;;5015604;28;20502;-81
2021/10/15 21:48:12;;;;;;;21.75;12.68;;;13.50;81.90;;;;;;5015869;28;20018;-81
2021/10/15 21:50:38;;;;;;;20.80;12.27;;;13.50;82.00;;;;;;5016417;28;20033;-82
2021/10/15 21:53:04;;;;;;;21.83;11.98;;;13.50;82.10;;;;;;5015842;28;20030;-82
2021/10/15 21:55:29;;;;;;;20.27;12.10;;;13.40;82.10;;;;;;5015313;28;20030;-81
2021/10/15 21:57:55;;;;;;;25.45;12.57;;;13.50;82.30;;;;;;5016860;28;20555;-81
2021/10/15 22:00:25;;;;;;;26.90;13.77;;;13.40;82.20;;;;;;5035623;28;20052;-81
2021/10/15 22:02:55;;;;;;;23.45;12.90;;;13.40;82.30;;;;;;5035410;28;20559;-82
2021/10/15 22:05:22;;;;;;;21.98;12.55;;;13.40;82.30;;;;;;5035466;28;20029;-82
2021/10/15 22:07:48;;;;;;;20.60;12.13;;;13.30;82.30;;;;;;5033622;28;20021;-81
2021/10/15 22:10:14;;;;;;;24.75;13.88;;;13.30;82.40;;;;;;5035545;28;20018;-82
2021/10/15 22:12:40;;;;;;;28.88;13.30;;;13.30;82.30;;;;;;5035095;28;20033;-82
2021/10/15 22:15:06;;;;;;;20.77;12.00;;;13.30;82.30;;;;;;5028804;28;20057;-82
2021/10/15 22:17:32;;;;;;;26.35;13.10;;;13.30;82.10;;;;;;5015361;28;20427;-81
2021/10/15 22:19:58;;;;;;;19.60;11.43;;;13.30;82.00;;;;;;5029423;28;20097;-82
2021/10/15 22:22:27;;;;;;;22.95;12.63;;;13.30;82.10;;;;;;5035235;28;20496;-81
2021/10/15 22:24:52;;;;;;;24.50;12.43;;;13.30;82.20;;;;;;5035934;28;20047;-81
2021/10/15 22:27:18;;;;;;;21.65;12.05;;;13.30;82.30;;;;;;5054998;28;20500;-82
2021/10/15 22:29:44;;;;;;;26.17;13.82;;;13.20;82.30;;;;;;5042232;28;20057;-82
2021/10/15 22:32:09;;;;;;;27.70;13.77;;;13.20;82.40;;;;;;5029098;28;20021;-82
2021/10/15 22:34:35;;;;;;;22.85;12.35;;;13.20;82.60;;;;;;5019501;28;20034;-82